Flight EZE1636

  • Submitted By: Dave Hardy
  • Departure Airport: Southampton (EGHI)
  • Arrival Airport: Paris-Le Bourget (LFPB)
  • Aircraft: JS41 (G-MAJA)
  • Flight Time: 1.07
  • Date Submitted: 06/09/2009
  • Status: Accepted
Flight Details
Gross Revenue:
(23 load / £ 0.00 per unit
£ 0.00
Fuel Cost:
(1322 fuel used @ 0 / unit)
£ 0.00

Flight Details

  • VATAWARE Link: -

Additional Log Information:

View Log

[2009/06/09 16:12:00]
Flight IATA:EZE1636
Pilot Number:EZE0001
Company ICAO:EZE
Aircraft Type:JS41
PAX:23
Aircraft Registration:JS41
Departing Airport: EGHI
Destination Airport: LFPB
Online: VATSIM
Route:GWC BOGNA HARDY M605 DPE
Flight Level:19000
16:12 Zero fuel Weight: 17982 Lbs, Fuel Weight: 2905 Lbs
16:12 VATSIM:EGHI 091020Z 02008KT 360V060 9999 SCT018 BKN028 13/09 Q1005
16:12 VATSIM:LFPB 091030Z AUTO 20013KT 160V230 9999NDV SCT019/// BKN027/// BKN036/// //////TCU 16/13 Q1006
16:15 Parking Brakes off
16:15 Com1 Freq=127.95
16:25 VR= 123 Knots
16:25 V2= 130 Knots
16:25 Take-off
16:25 Take off Weight: 20840 Lbs
16:25 Wind: 025 @ 009 Knots Heading: 020
16:25 POS N50 57 10 W001 21 19
16:25 N11 36 N12 36
16:25 Gear Up: 132 Knots
16:25 Flaps: at 132 Knots
16:28 Flaps: at 193 Knots
16:34 TOC
16:34 Fuel Weight: 2498 Lb
16:40 Wind:081@007 Knots Heading: 115 Ground Speed: 304 Knots Altitude 18697 ft
16:54 TOD
16:54 Fuel Weight: 1953 Lb
16:55 Wind:247@008 Knots Heading: 150 Ground Speed: 302 Knots Altitude 18087 ft
17:05 Flaps: at 209 Knots
17:05 Gear Down: 208 Knots
17:06 Flaps: at 139 Knots
17:09 Gear Up: 154 Knots
17:10 Wind:220@015 Knots Heading: 085 Ground Speed: 193 Knots Altitude 2201 ft
17:10 Com1 Freq=126.95
17:10 Com1 Freq=121.95
17:10 Com1 Freq=120.95
17:10 Com1 Freq=121.95
17:10 Com1 Freq=122.87
17:10 Com1 Freq=122.77
17:10 Com1 Freq=122.80
17:12 Flaps: at 177 Knots
17:12 Gear Down: 177 Knots
17:12 Flaps: at 177 Knots
17:13 Flaps: at 153 Knots
17:15 TouchDown:Rate -231 ft/min Speed: 113 Knots
17:15 VATSIM:LFPB 091130Z 20016G26KT 170V230 9999 SCT025 FEW030CB SCT033 18/13 Q1006 TEMPO 21020G30KT 4000 SHRA SCT030CB
17:15 Land
17:15 Wind:213@014 Knots
17:15 Heading: 265
17:15 Flight Duration: 00:50
17:15 Landing Weight: 19590 Lbs
17:15 POS N48 57 51 E002 26 01
17:22 Parking brakes on
17:22 Block to Block Duration: 01:07
17:22 Final Fuel: 1582 Lbls
17:22 Spent Fuel: 1322 Lbls
17:22 Flight Length: 209 NM
17:22 TOD Land Length: 73 NM

Route Map